Time;durP1;ratioP1;P1;durP2;ratioP2;P2;SDS_P1;SDS_P2;PMS_P1;PMS_P2;Temp;Humidity;BMP_temperature;BMP_pressure;BME280_temperature;BME280_humidity;BME280_pressure;Samples;Min_cycle;Max_cycle;Signal;HPM_P1;HPM_P2
2024/01/20 00:01:37;;;;;;;34.40;19.98;;;-2.40;99.90;;;-3.34;100.00;102327.56;4181302;28;20063;-68
2024/01/20 00:03:38;;;;;;;27.63;17.75;;;-2.30;99.90;;;-3.32;100.00;102330.13;4168662;28;20045;-68
2024/01/20 00:05:39;;;;;;;28.08;16.60;;;-2.30;99.90;;;-3.36;100.00;102335.34;4168759;28;20547;-68
2024/01/20 00:07:40;;;;;;;23.77;14.48;;;-2.30;99.90;;;-3.40;100.00;102344.00;4172007;28;20445;-68
2024/01/20 00:09:40;;;;;;;23.30;14.27;;;-2.30;99.90;;;-3.48;100.00;102338.16;4178790;28;20079;-68
2024/01/20 00:11:41;;;;;;;22.17;13.50;;;-2.40;99.90;;;-3.53;100.00;102333.97;4178557;28;20025;-68
2024/01/20 00:13:42;;;;;;;19.98;13.40;;;-2.40;99.90;;;-3.57;100.00;102337.47;4188443;28;20051;-68
2024/01/20 00:15:43;;;;;;;18.80;13.02;;;-2.50;99.90;;;-3.55;100.00;102351.19;4188336;28;20499;-68
2024/01/20 00:17:44;;;;;;;21.58;12.73;;;-2.50;99.90;;;-3.54;100.00;102348.59;4188238;28;20037;-69
2024/01/20 00:19:45;;;;;;;19.40;11.00;;;-2.60;99.90;;;-3.57;100.00;102351.22;4188385;28;20044;-68
2024/01/20 00:21:45;;;;;;;16.88;11.82;;;-2.50;99.90;;;-3.61;100.00;102362.47;4188537;28;20028;-69
2024/01/20 00:23:46;;;;;;;20.00;12.55;;;-2.50;99.90;;;-3.67;100.00;102359.97;4188179;28;20048;-68
2024/01/20 00:25:47;;;;;;;22.30;12.52;;;-2.50;99.90;;;-3.69;100.00;102359.16;4172110;28;20029;-68
2024/01/20 00:27:51;;;;;;;20.63;11.80;;;-2.60;99.90;;;-3.63;100.00;102360.78;4171605;28;20033;-68
2024/01/20 00:29:52;;;;;;;19.23;12.68;;;-2.60;99.90;;;-3.66;100.00;102358.25;4171706;28;20049;-68
2024/01/20 00:31:53;;;;;;;22.77;12.30;;;-2.60;99.90;;;-3.66;100.00;102363.41;4183604;28;20025;-68
2024/01/20 00:33:54;;;;;;;20.35;12.80;;;-2.60;99.90;;;-3.66;100.00;102359.13;4171689;28;20029;-68
2024/01/20 00:35:55;;;;;;;21.20;13.35;;;-2.60;99.90;;;-3.65;100.00;102347.94;4171622;28;20037;-68
2024/01/20 00:37:56;;;;;;;21.10;14.10;;;-2.60;99.90;;;-3.65;100.00;102349.66;4171379;28;20385;-68
2024/01/20 00:39:57;;;;;;;19.52;13.05;;;-2.60;99.90;;;-3.64;100.00;102344.44;4171346;28;20021;-68
2024/01/20 00:41:57;;;;;;;20.42;13.63;;;-2.60;99.90;;;-3.63;100.00;102343.59;4170265;28;20041;-68
2024/01/20 00:43:58;;;;;;;20.75;12.48;;;-2.60;99.90;;;-3.64;100.00;102338.44;4171413;28;20091;-68
2024/01/20 00:46:00;;;;;;;18.17;12.13;;;-2.60;99.90;;;-3.65;100.00;102340.19;4171468;28;20060;-68
2024/01/20 00:48:00;;;;;;;17.60;11.27;;;-2.70;99.90;;;-3.67;100.00;102341.06;4171351;28;20120;-68
2024/01/20 00:50:04;;;;;;;20.20;12.88;;;-2.60;99.90;;;-3.74;100.00;102335.19;4170035;28;20032;-68
2024/01/20 00:52:05;;;;;;;15.95;11.68;;;-2.60;99.90;;;-3.75;100.00;102335.22;4176270;28;20029;-68
2024/01/20 00:54:07;;;;;;;21.85;12.63;;;-2.70;99.90;;;-3.73;100.00;102341.22;4194804;28;20025;-68
2024/01/20 00:56:08;;;;;;;21.25;14.00;;;-2.70;99.90;;;-3.78;100.00;102338.69;4171249;28;20029;-68
2024/01/20 00:58:10;;;;;;;17.73;12.50;;;-2.80;99.90;;;-3.80;100.00;102344.75;4171100;28;20021;-68
2024/01/20 01:00:11;;;;;;;15.73;11.80;;;-2.70;99.90;;;-3.83;100.00;102344.81;4174910;28;20033;-68
2024/01/20 01:02:12;;;;;;;21.58;13.10;;;-2.70;99.90;;;-3.85;100.00;102362.03;4171310;28;20107;-68
2024/01/20 01:04:13;;;;;;;19.23;12.38;;;-2.80;99.90;;;-3.84;100.00;102349.09;4171139;28;20029;-68
2024/01/20 01:06:13;;;;;;;19.15;12.77;;;-2.80;99.90;;;-3.85;100.00;102342.25;4170946;28;20076;-68
2024/01/20 01:08:14;;;;;;;22.55;12.55;;;-2.80;99.90;;;-3.81;100.00;102335.31;4171130;28;20029;-68
2024/01/20 01:10:16;;;;;;;21.52;12.77;;;-2.80;99.90;;;-3.82;100.00;102329.31;4178384;28;20026;-68
2024/01/20 01:12:17;;;;;;;22.48;12.98;;;-2.80;99.90;;;-3.82;100.00;102324.16;4197267;28;20033;-68
2024/01/20 01:14:18;;;;;;;21.63;13.45;;;-2.80;99.90;;;-3.81;100.00;102325.00;4170866;28;20404;-68
2024/01/20 01:16:19;;;;;;;20.45;12.23;;;-2.80;99.90;;;-3.82;100.00;102326.72;4171083;28;20481;-68
2024/01/20 01:18:20;;;;;;;17.42;11.90;;;-2.80;99.90;;;-3.89;100.00;102314.84;4170983;28;20018;-68
2024/01/20 01:20:21;;;;;;;25.27;13.38;;;-2.80;99.90;;;-3.90;100.00;102313.13;4170899;28;20066;-68
2024/01/20 01:22:22;;;;;;;22.80;13.48;;;-2.80;99.90;;;-3.87;100.00;102319.94;4170709;28;20021;-69
2024/01/20 01:24:23;;;;;;;22.80;13.38;;;-2.80;99.90;;;-3.92;100.00;102322.63;4170760;28;20030;-68
2024/01/20 01:26:24;;;;;;;20.70;13.13;;;-2.80;99.90;;;-3.95;100.00;102338.13;4170817;28;20022;-68
2024/01/20 01:28:25;;;;;;;18.50;12.63;;;-2.90;99.90;;;-4.01;100.00;102336.50;4170758;28;20485;-68
2024/01/20 01:30:25;;;;;;;16.60;12.10;;;-2.90;99.90;;;-4.05;100.00;102324.53;4170631;28;20029;-68
2024/01/20 01:32:26;;;;;;;18.00;12.05;;;-2.90;99.90;;;-4.08;100.00;102322.00;4170764;28;20029;-68
2024/01/20 01:34:27;;;;;;;19.25;13.13;;;-3.00;99.90;;;-4.10;100.00;102325.50;4176437;28;20024;-68
2024/01/20 01:36:28;;;;;;;18.23;12.45;;;-3.00;99.90;;;-4.10;100.00;102339.25;4179246;28;20037;-68
2024/01/20 01:38:29;;;;;;;18.13;11.43;;;-3.00;99.90;;;-4.11;100.00;102336.66;4173622;28;20034;-68
2024/01/20 01:40:30;;;;;;;17.85;12.40;;;-3.00;99.90;;;-4.12;100.00;102332.41;4170434;28;20037;-68
2024/01/20 01:42:30;;;;;;;22.88;13.20;;;-3.10;99.90;;;-4.14;100.00;102329.00;4170554;28;20643;-68
2024/01/20 01:44:32;;;;;;;19.55;12.63;;;-3.10;99.90;;;-4.16;100.00;102326.44;4170533;28;20029;-68
2024/01/20 01:46:33;;;;;;;19.38;11.95;;;-3.10;99.90;;;-4.14;100.00;102332.41;4170431;28;20029;-68
2024/01/20 01:48:34;;;;;;;19.27;12.32;;;-3.10;99.90;;;-4.15;100.00;102346.16;4170482;28;20052;-68
2024/01/20 01:50:36;;;;;;;20.00;11.52;;;-3.10;99.90;;;-4.14;100.00;102344.44;4159213;28;20045;-68
2024/01/20 01:52:38;;;;;;;20.80;11.35;;;-3.10;99.90;;;-4.16;100.00;102346.22;4179836;28;20053;-68
2024/01/20 01:54:39;;;;;;;15.60;10.50;;;-3.10;99.90;;;-4.17;100.00;102347.06;4201721;28;20100;-68
2024/01/20 01:56:43;;;;;;;17.60;11.15;;;-3.10;99.90;;;-4.20;100.00;102354.84;4185454;28;20036;-68
2024/01/20 01:58:46;;;;;;;17.02;10.63;;;-3.10;99.90;;;-4.25;100.00;102351.50;4185775;28;20498;-68
2024/01/20 02:00:47;;;;;;;16.67;10.25;;;-3.10;99.90;;;-4.28;100.00;102352.41;4185644;28;20468;-68
2024/01/20 02:02:48;;;;;;;14.73;10.45;;;-3.20;99.90;;;-4.25;100.00;102351.50;4186739;28;20021;-68
2024/01/20 02:04:49;;;;;;;16.80;10.60;;;-3.20;99.90;;;-4.22;100.00;102351.44;4186725;28;20032;-68
2024/01/20 02:06:50;;;;;;;14.80;9.90;;;-3.20;99.90;;;-4.26;100.00;102345.50;4186650;28;20074;-68
2024/01/20 02:08:51;;;;;;;16.92;10.57;;;-3.20;99.90;;;-4.25;100.00;102354.94;4185280;28;20025;-68
2024/01/20 02:10:54;;;;;;;13.10;10.00;;;-3.20;99.90;;;-4.25;100.00;102352.34;4168553;28;20022;-68
2024/01/20 02:12:56;;;;;;;13.05;9.05;;;-3.20;99.90;;;-4.30;100.00;102359.28;4169992;28;20057;-68
2024/01/20 02:14:58;;;;;;;17.23;10.55;;;-3.20;99.90;;;-4.33;100.00;102361.91;4158234;28;20542;-68
2024/01/20 02:16:59;;;;;;;13.75;9.55;;;-3.20;99.90;;;-4.35;100.00;102362.78;4176096;28;20107;-68
2024/01/20 02:19:05;;;;;;;15.48;10.30;;;-3.20;99.90;;;-4.37;100.00;102365.41;4168696;28;20038;-68
2024/01/20 02:21:06;;;;;;;22.15;11.35;;;-3.30;99.90;;;-4.37;100.00;102367.13;4152333;28;20485;-68
2024/01/20 02:23:07;;;;;;;14.00;9.98;;;-3.30;99.90;;;-4.37;100.00;102359.41;4185249;28;20036;-68
2024/01/20 02:25:08;;;;;;;17.25;10.82;;;-3.30;99.90;;;-4.37;100.00;102365.41;4179721;28;20028;-68
2024/01/20 02:27:09;;;;;;;20.30;10.70;;;-3.30;99.90;;;-4.36;100.00;102369.66;4184952;28;20507;-68
2024/01/20 02:29:10;;;;;;;15.50;10.00;;;-3.30;99.90;;;-4.36;100.00;102363.69;4185974;28;20029;-68
2024/01/20 02:31:11;;;;;;;14.25;9.18;;;-3.30;99.90;;;-4.38;100.00;102370.56;4186355;28;20035;-68
2024/01/20 02:33:12;;;;;;;16.25;9.70;;;-3.30;99.90;;;-4.42;100.00;102369.75;4186287;28;20423;-68
2024/01/20 02:35:13;;;;;;;15.82;10.10;;;-3.30;99.90;;;-4.42;100.00;102381.81;4186377;28;20021;-68
2024/01/20 02:37:14;;;;;;;15.73;9.27;;;-3.30;99.90;;;-4.44;100.00;102378.38;4184747;28;20094;-68
2024/01/20 02:39:15;;;;;;;14.90;9.85;;;-3.30;99.90;;;-4.46;100.00;102381.00;4186182;28;20434;-67
2024/01/20 02:41:16;;;;;;;20.45;11.98;;;-3.40;99.90;;;-4.54;100.00;102373.34;4184980;28;20594;-68
2024/01/20 02:43:17;;;;;;;18.20;12.70;;;-3.40;99.90;;;-4.54;100.00;102370.78;4201472;28;20028;-68
2024/01/20 02:45:18;;;;;;;19.60;13.30;;;-3.40;99.90;;;-4.54;100.00;102372.53;4185986;28;20032;-68
2024/01/20 02:47:19;;;;;;;22.77;14.90;;;-3.40;99.90;;;-4.52;100.00;102374.22;4186019;28;20029;-68
2024/01/20 02:49:20;;;;;;;22.48;13.93;;;-3.40;99.90;;;-4.49;100.00;102376.75;4186099;28;20029;-68
2024/01/20 02:51:21;;;;;;;24.20;15.80;;;-3.40;99.90;;;-4.46;100.00;102383.56;4185962;28;20017;-68
2024/01/20 02:53:22;;;;;;;25.10;13.68;;;-3.40;99.90;;;-4.43;100.00;102377.50;4185783;28;20025;-68
2024/01/20 02:55:22;;;;;;;25.27;15.20;;;-3.40;99.90;;;-4.43;100.00;102380.94;4184561;28;20021;-68
2024/01/20 02:57:24;;;;;;;21.45;14.43;;;-3.40;99.90;;;-4.39;100.00;102380.00;4184691;28;20040;-68
2024/01/20 02:59:25;;;;;;;20.45;12.77;;;-3.40;99.90;;;-4.44;100.00;102370.66;4186015;28;20036;-68
2024/01/20 03:01:25;;;;;;;17.77;12.20;;;-3.40;99.90;;;-4.50;100.00;102387.91;4185706;28;20033;-68
2024/01/20 03:03:26;;;;;;;17.35;10.70;;;-3.40;99.90;;;-4.54;100.00;102380.25;4185911;28;20021;-68
2024/01/20 03:05:27;;;;;;;17.70;11.80;;;-3.40;99.90;;;-4.60;100.00;102388.06;4177516;28;20033;-68
2024/01/20 03:07:28;;;;;;;18.80;12.57;;;-3.40;99.90;;;-4.64;100.00;102381.22;4169159;28;20030;-68
2024/01/20 03:09:29;;;;;;;21.73;13.38;;;-3.50;99.90;;;-4.66;100.00;102378.66;4176442;28;20032;-68
2024/01/20 03:11:30;;;;;;;18.58;12.73;;;-3.50;99.90;;;-4.66;100.00;102372.69;4173735;28;20051;-68
2024/01/20 03:13:31;;;;;;;20.55;13.43;;;-3.50;99.90;;;-4.68;100.00;102367.53;4184692;28;20028;-68
2024/01/20 03:15:31;;;;;;;19.52;13.80;;;-3.50;99.90;;;-4.67;100.00;102369.25;4185819;28;20036;-68
2024/01/20 03:17:32;;;;;;;21.73;14.63;;;-3.50;99.90;;;-4.66;100.00;102376.09;4185471;28;20083;-68
2024/01/20 03:19:33;;;;;;;19.95;12.98;;;-3.50;99.90;;;-4.66;100.00;102376.09;4184374;28;20029;-68
2024/01/20 03:21:34;;;;;;;20.58;13.23;;;-3.60;99.90;;;-4.64;100.00;102379.50;4185699;28;20059;-68
2024/01/20 03:23:35;;;;;;;21.20;13.75;;;-3.60;99.90;;;-4.64;100.00;102383.81;4185421;28;20055;-68
2024/01/20 03:25:36;;;;;;;19.98;12.20;;;-3.60;99.90;;;-4.61;100.00;102388.91;4185178;28;20087;-68
2024/01/20 03:27:37;;;;;;;17.73;12.13;;;-3.60;99.90;;;-4.61;100.00;102389.78;4185420;28;20021;-68
2024/01/20 03:29:37;;;;;;;22.35;14.48;;;-3.50;99.90;;;-4.60;100.00;102388.88;4185664;28;20021;-68
2024/01/20 03:31:38;;;;;;;26.42;14.35;;;-3.50;99.90;;;-4.59;100.00;102382.88;4185431;28;20021;-68
2024/01/20 03:33:39;;;;;;;17.63;13.35;;;-3.60;99.90;;;-4.60;100.00;102388.88;4185284;28;20032;-68
2024/01/20 03:35:40;;;;;;;20.17;12.50;;;-3.60;99.90;;;-4.63;100.00;102385.53;4183937;28;20029;-68
2024/01/20 03:37:41;;;;;;;20.92;13.23;;;-3.60;99.90;;;-4.67;100.00;102382.13;4185280;28;20029;-68
2024/01/20 03:39:42;;;;;;;21.40;13.43;;;-3.60;99.90;;;-4.65;100.00;102389.81;4184413;28;20021;-68
2024/01/20 03:41:43;;;;;;;18.85;12.82;;;-3.60;99.90;;;-4.65;100.00;102380.38;4172350;28;20029;-68
2024/01/20 03:43:44;;;;;;;24.27;12.88;;;-3.60;99.90;;;-4.65;100.00;102377.81;4180072;28;20484;-69
2024/01/20 03:45:46;;;;;;;18.92;12.43;;;-3.60;99.90;;;-4.66;100.00;102386.38;4168984;28;20033;-69
2024/01/20 03:47:46;;;;;;;18.92;12.70;;;-3.50;99.90;;;-4.73;100.00;102384.78;4168682;28;20025;-69
2024/01/20 03:49:47;;;;;;;19.92;12.45;;;-3.60;99.90;;;-4.82;100.00;102390.03;4171968;28;20051;-68
2024/01/20 03:51:48;;;;;;;17.80;12.20;;;-3.60;99.90;;;-4.84;100.00;102386.66;4183950;28;21524;-68
2024/01/20 03:53:49;;;;;;;18.20;12.75;;;-3.70;99.90;;;-4.90;100.00;102384.16;4185312;28;20047;-68
2024/01/20 03:55:50;;;;;;;17.63;11.50;;;-3.70;99.90;;;-4.92;100.00;102382.44;4184940;28;20081;-68
2024/01/20 03:57:51;;;;;;;21.02;11.85;;;-3.80;99.90;;;-4.95;100.00;102388.47;4184074;28;20135;-68
2024/01/20 03:59:51;;;;;;;17.30;12.60;;;-3.80;99.90;;;-4.95;100.00;102387.63;4185010;28;20059;-68
2024/01/20 04:01:52;;;;;;;17.42;13.02;;;-3.80;99.90;;;-4.93;100.00;102391.91;4185142;28;20024;-68
2024/01/20 04:03:53;;;;;;;20.20;13.68;;;-3.80;99.90;;;-4.93;100.00;102391.03;4185107;28;20467;-68
2024/01/20 04:05:54;;;;;;;19.58;12.93;;;-3.80;99.90;;;-4.91;100.00;102391.88;4185106;28;20037;-68
2024/01/20 04:07:55;;;;;;;19.80;13.77;;;-3.90;99.90;;;-4.92;100.00;102375.56;4183577;28;20029;-68
2024/01/20 04:09:56;;;;;;;19.35;13.52;;;-3.90;99.90;;;-4.85;100.00;102382.34;4179915;28;20029;-68
2024/01/20 04:11:57;;;;;;;20.10;13.63;;;-3.80;99.90;;;-4.79;100.00;102382.28;4176603;28;20047;-68
2024/01/20 04:13:57;;;;;;;20.38;13.68;;;-3.80;99.90;;;-4.79;100.00;102379.72;4173833;28;20036;-68
2024/01/20 04:15:58;;;;;;;19.83;12.93;;;-3.80;99.90;;;-4.77;100.00;102383.09;4167109;28;20528;-68
2024/01/20 04:17:59;;;;;;;21.58;12.18;;;-3.70;99.90;;;-4.81;100.00;102381.47;4168619;28;20029;-68
2024/01/20 04:20:00;;;;;;;18.92;12.48;;;-3.70;99.90;;;-4.86;100.00;102384.94;4168590;28;20025;-68
2024/01/20 04:22:01;;;;;;;18.58;12.70;;;-3.70;99.90;;;-4.91;100.00;102379.00;4168481;28;20033;-68
2024/01/20 04:24:02;;;;;;;16.23;11.73;;;-3.80;99.90;;;-4.96;100.00;102381.63;4180525;28;20048;-68
2024/01/20 04:26:03;;;;;;;20.20;12.55;;;-3.80;99.90;;;-4.99;100.00;102375.69;4183723;28;20025;-68
2024/01/20 04:28:04;;;;;;;17.35;11.32;;;-3.80;99.90;;;-4.99;100.00;102373.09;4167194;28;20516;-68
2024/01/20 04:30:09;;;;;;;19.45;13.05;;;-3.90;99.90;;;-4.98;100.00;102375.63;4183774;28;20061;-68
2024/01/20 04:32:10;;;;;;;20.73;12.30;;;-3.90;99.90;;;-4.96;100.00;102368.78;4168344;28;20017;-68
2024/01/20 04:34:11;;;;;;;18.55;12.10;;;-3.90;99.90;;;-4.96;100.00;102376.50;4178641;28;20160;-68
2024/01/20 04:36:12;;;;;;;19.55;12.02;;;-3.90;99.90;;;-4.93;100.00;102375.59;4168431;28;20082;-68
2024/01/20 04:38:13;;;;;;;19.52;12.50;;;-3.90;99.90;;;-4.96;100.00;102353.34;4168301;28;20026;-68
2024/01/20 04:40:14;;;;;;;17.27;12.55;;;-3.90;99.90;;;-4.91;100.00;102359.28;4168048;28;20029;-68
2024/01/20 04:42:14;;;;;;;17.85;12.35;;;-3.90;99.90;;;-4.92;100.00;102354.97;4168403;28;20037;-68
2024/01/20 04:44:15;;;;;;;17.95;12.77;;;-3.80;99.90;;;-4.98;100.00;102352.47;4176121;28;20037;-68
2024/01/20 04:46:16;;;;;;;19.95;12.27;;;-3.90;99.90;;;-4.99;100.00;102365.38;4168230;28;20048;-68
2024/01/20 04:48:17;;;;;;;19.08;13.07;;;-3.90;99.90;;;-5.04;100.00;102365.41;4168300;28;20028;-68
2024/01/20 04:50:18;;;;;;;17.60;14.07;;;-3.90;99.90;;;-5.06;100.00;102364.59;4168231;28;20044;-68
2024/01/20 04:52:20;;;;;;;17.95;12.80;;;-3.90;99.90;;;-5.07;100.00;102363.75;4177335;28;20427;-68
2024/01/20 04:54:21;;;;;;;18.75;12.10;;;-4.00;99.90;;;-5.04;100.00;102368.00;4177244;28;20026;-68
2024/01/20 04:56:22;;;;;;;17.40;12.30;;;-4.00;99.90;;;-5.03;100.00;102372.28;4171228;28;20018;-68
2024/01/20 04:58:23;;;;;;;16.63;11.35;;;-4.00;99.90;;;-5.05;100.00;102381.75;4171386;28;20446;-68
2024/01/20 05:00:24;;;;;;;20.50;13.02;;;-4.00;99.90;;;-5.06;100.00;102378.31;4171306;28;20029;-68
2024/01/20 05:02:25;;;;;;;19.27;11.65;;;-4.00;99.90;;;-5.13;100.00;102383.53;4169813;28;20064;-68
2024/01/20 05:04:25;;;;;;;17.25;12.25;;;-4.00;99.90;;;-5.15;100.00;102385.28;4188982;28;20496;-68
2024/01/20 05:06:26;;;;;;;18.92;12.25;;;-4.00;99.90;;;-5.17;100.00;102382.75;4171225;28;20029;-68
2024/01/20 05:08:27;;;;;;;17.55;11.20;;;-4.10;99.90;;;-5.12;100.00;102382.66;4171580;28;20021;-68
2024/01/20 05:10:28;;;;;;;17.33;12.40;;;-4.00;99.90;;;-5.15;100.00;102370.69;4174738;28;20021;-68
2024/01/20 05:12:29;;;;;;;17.90;11.07;;;-4.10;99.90;;;-5.14;100.00;102379.28;4171011;28;20052;-68
2024/01/20 05:14:30;;;;;;;16.75;11.13;;;-4.10;99.90;;;-5.13;100.00;102378.38;4184427;28;20029;-68
2024/01/20 05:16:31;;;;;;;17.42;11.43;;;-4.00;99.90;;;-5.17;100.00;102374.16;4176072;28;20047;-68
2024/01/20 05:18:32;;;;;;;16.92;11.30;;;-4.00;99.90;;;-5.20;100.00;102384.47;4171034;28;20032;-70
2024/01/20 05:20:33;;;;;;;16.25;11.38;;;-4.10;99.90;;;-5.24;100.00;102385.38;4170889;28;20033;-69
2024/01/20 05:22:34;;;;;;;16.02;11.07;;;-4.10;99.90;;;-5.28;100.00;102379.41;4170810;28;20465;-68
2024/01/20 05:24:34;;;;;;;17.50;10.60;;;-4.10;99.90;;;-5.30;100.00;102383.72;4181318;28;20029;-68
2024/01/20 05:26:35;;;;;;;19.27;11.13;;;-4.20;99.90;;;-5.30;100.00;102381.16;4170772;28;20562;-68
2024/01/20 05:28:36;;;;;;;20.08;10.93;;;-4.20;99.90;;;-5.27;100.00;102380.25;4181849;28;20505;-68
2024/01/20 05:30:37;;;;;;;18.63;10.60;;;-4.20;99.90;;;-5.24;100.00;102382.81;4170770;28;20025;-68
2024/01/20 05:32:41;;;;;;;14.60;10.73;;;-4.20;99.90;;;-5.25;100.00;102383.66;4171541;28;20024;-68
2024/01/20 05:34:42;;;;;;;15.65;11.18;;;-4.10;99.90;;;-5.29;100.00;102379.44;4186300;28;20029;-68
2024/01/20 05:36:43;;;;;;;15.15;10.55;;;-4.10;99.90;;;-5.33;100.00;102385.47;4202542;28;20051;-68
2024/01/20 05:38:44;;;;;;;15.93;10.93;;;-4.20;99.90;;;-5.40;100.00;102383.81;4185449;28;20029;-68
2024/01/20 05:40:45;;;;;;;15.50;10.35;;;-4.20;99.90;;;-5.43;100.00;102388.97;4187029;28;20033;-68
2024/01/20 05:42:45;;;;;;;16.58;10.30;;;-4.20;99.90;;;-5.41;100.00;102389.84;4187296;28;20025;-68
2024/01/20 05:44:46;;;;;;;18.70;11.05;;;-4.30;99.90;;;-5.42;100.00;102396.69;4175779;28;20064;-68
2024/01/20 05:46:47;;;;;;;18.17;10.57;;;-4.30;99.90;;;-5.42;100.00;102396.69;4170350;28;20052;-68
2024/01/20 05:48:48;;;;;;;15.95;11.13;;;-4.20;99.90;;;-5.42;100.00;102395.84;4170750;28;20056;-68
2024/01/20 05:50:49;;;;;;;17.67;11.80;;;-4.30;99.90;;;-5.43;100.00;102388.97;4177203;28;20040;-68
2024/01/20 05:52:50;;;;;;;16.60;10.05;;;-4.30;99.90;;;-5.41;100.00;102389.84;4181176;28;20017;-68
2024/01/20 05:54:51;;;;;;;14.98;9.20;;;-4.30;99.90;;;-5.45;100.00;102389.00;4185534;28;20021;-68
2024/01/20 05:56:52;;;;;;;17.88;11.02;;;-4.30;99.90;;;-5.50;100.00;102387.34;4202364;28;20032;-68
2024/01/20 05:58:53;;;;;;;12.25;10.27;;;-4.30;99.90;;;-5.54;100.00;102401.94;4186935;28;20078;-68
2024/01/20 06:00:54;;;;;;;16.45;11.13;;;-4.40;99.90;;;-5.57;100.00;102390.84;4186784;28;20476;-68
2024/01/20 06:02:55;;;;;;;17.08;11.93;;;-4.40;99.90;;;-5.55;100.00;102389.13;4184991;28;20033;-68
2024/01/20 06:04:55;;;;;;;16.15;11.18;;;-4.40;99.90;;;-5.55;100.00;102391.69;4170287;28;20044;-68
2024/01/20 06:06:56;;;;;;;15.65;11.48;;;-4.40;99.90;;;-5.55;100.00;102391.69;4170150;28;20030;-68
2024/01/20 06:08:57;;;;;;;16.48;11.55;;;-4.40;99.90;;;-5.57;100.00;102395.97;4174413;28;20571;-68
2024/01/20 06:10:58;;;;;;;17.52;11.95;;;-4.50;99.90;;;-5.62;100.00;102403.75;4173245;28;20029;-68
2024/01/20 06:12:59;;;;;;;14.13;10.52;;;-4.50;99.90;;;-5.64;100.00;102400.31;4186596;28;20022;-68
2024/01/20 06:15:00;;;;;;;15.35;10.82;;;-4.40;99.90;;;-5.66;100.00;102402.91;4185467;28;20476;-68
2024/01/20 06:17:01;;;;;;;17.38;11.73;;;-4.50;99.90;;;-5.66;100.00;102413.19;4186580;28;20052;-68
2024/01/20 06:19:02;;;;;;;17.67;11.73;;;-4.50;99.90;;;-5.68;100.00;102411.50;4185238;28;20087;-68
2024/01/20 06:21:03;;;;;;;19.60;11.73;;;-4.50;99.90;;;-5.67;100.00;102411.47;4186519;28;20029;-68
2024/01/20 06:23:04;;;;;;;19.05;11.18;;;-4.50;99.90;;;-5.68;100.00;102403.78;4186536;28;20032;-68
2024/01/20 06:25:05;;;;;;;16.75;11.63;;;-4.50;99.90;;;-5.66;100.00;102408.06;4176706;28;20040;-68
2024/01/20 06:27:06;;;;;;;16.98;11.40;;;-4.50;99.90;;;-5.68;100.00;102396.09;4169860;28;20033;-68
2024/01/20 06:29:07;;;;;;;15.68;11.30;;;-4.50;99.90;;;-5.72;100.00;102404.69;4169745;28;20028;-68
2024/01/20 06:31:08;;;;;;;18.23;11.85;;;-4.50;99.90;;;-5.77;100.00;102403.88;4174870;28;20420;-68
2024/01/20 06:33:08;;;;;;;16.95;12.23;;;-4.60;99.90;;;-5.77;100.00;102397.03;4172644;28;20017;-68
2024/01/20 06:35:09;;;;;;;21.95;12.85;;;-4.60;99.90;;;-5.74;100.00;102399.56;4173464;28;20018;-68
2024/01/20 06:37:10;;;;;;;20.40;12.93;;;-4.60;99.90;;;-5.72;100.00;102408.09;4169706;28;20125;-68
2024/01/20 06:39:11;;;;;;;17.30;11.32;;;-4.60;99.90;;;-5.73;100.00;102403.81;4174309;28;20063;-68
2024/01/20 06:41:12;;;;;;;18.23;12.32;;;-4.70;99.90;;;-5.73;100.00;102408.09;4169641;28;20030;-68
2024/01/20 06:43:13;;;;;;;20.55;13.68;;;-4.60;99.90;;;-5.72;100.00;102402.09;4173990;28;20100;-68
2024/01/20 06:45:14;;;;;;;22.80;14.57;;;-4.60;99.90;;;-5.73;100.00;102406.38;4170064;28;20046;-68
2024/01/20 06:47:15;;;;;;;20.05;11.85;;;-4.60;99.90;;;-5.72;100.00;102408.09;4169577;28;20040;-68
2024/01/20 06:49:16;;;;;;;21.42;14.18;;;-4.60;99.90;;;-5.74;100.00;102398.72;4169717;28;20017;-68
2024/01/20 06:51:17;;;;;;;18.02;13.63;;;-4.60;99.90;;;-5.77;100.00;102393.59;4169478;28;20029;-68
2024/01/20 06:53:18;;;;;;;20.75;13.30;;;-4.60;99.90;;;-5.79;100.00;102392.72;4183606;28;20435;-68
2024/01/20 06:55:18;;;;;;;21.63;14.18;;;-4.60;99.90;;;-5.80;100.00;102384.19;4201147;28;20036;-68
2024/01/20 06:57:19;;;;;;;19.38;12.93;;;-4.70;99.90;;;-5.83;100.00;102386.78;4184787;28;20451;-68
2024/01/20 06:59:20;;;;;;;23.90;14.10;;;-4.60;99.90;;;-5.84;100.00;102385.06;4185992;28;20036;-68
2024/01/20 07:01:22;;;;;;;23.52;13.73;;;-4.70;99.90;;;-5.88;100.00;102375.72;4185729;28;20044;-68
2024/01/20 07:03:23;;;;;;;21.30;13.75;;;-4.70;99.90;;;-5.90;100.00;102371.44;4184790;28;20051;-68
2024/01/20 07:05:24;;;;;;;22.92;14.50;;;-4.70;99.90;;;-5.97;100.00;102362.94;4185779;28;20515;-68
2024/01/20 07:07:25;;;;;;;22.75;14.68;;;-4.70;99.90;;;-5.95;100.00;102363.81;4185868;28;20033;-68
2024/01/20 07:09:26;;;;;;;22.92;15.00;;;-4.70;99.90;;;-5.96;100.00;102362.09;4181398;28;20021;-68
2024/01/20 07:11:26;;;;;;;24.00;15.05;;;-4.70;99.90;;;-5.96;100.00;102371.50;4169307;28;20396;-68
2024/01/20 07:13:27;;;;;;;23.08;14.85;;;-4.70;99.90;;;-5.92;100.00;102374.06;4175125;28;20036;-68
2024/01/20 07:15:28;;;;;;;26.05;16.15;;;-4.80;99.90;;;-5.92;100.00;102379.19;4184474;28;20021;-68
2024/01/20 07:17:29;;;;;;;29.15;16.65;;;-4.80;99.90;;;-5.92;100.00;102374.06;4185521;28;20025;-68
2024/01/20 07:19:30;;;;;;;25.13;16.20;;;-4.80;99.90;;;-5.86;100.00;102371.44;4184531;28;20107;-68
2024/01/20 07:21:31;;;;;;;25.95;14.75;;;-4.80;99.90;;;-5.88;100.00;102367.16;4185571;28;20025;-68
2024/01/20 07:23:32;;;;;;;24.33;14.77;;;-4.80;99.90;;;-5.86;100.00;102368.88;4185319;28;20084;-68
2024/01/20 07:25:36;;;;;;;26.33;15.55;;;-4.70;99.90;;;-5.85;100.00;102377.41;4184023;28;20048;-68
2024/01/20 07:27:37;;;;;;;16.42;11.18;;;-4.70;99.90;;;-5.85;100.00;102367.94;4185520;28;20029;-68
2024/01/20 07:29:38;;;;;;;20.60;12.48;;;-4.70;99.90;;;-5.83;100.00;102367.94;4185484;28;20032;-68
2024/01/20 07:31:39;;;;;;;26.90;14.43;;;-4.70;99.90;;;-5.82;100.00;102374.78;4179077;28;20391;-68
2024/01/20 07:33:41;;;;;;;22.55;13.75;;;-4.70;99.90;;;-5.83;100.00;102367.94;4172113;28;20030;-68
2024/01/20 07:35:41;;;;;;;23.15;13.25;;;-4.70;99.90;;;-5.80;100.00;102379.06;4170425;28;20196;-68
2024/01/20 07:37:42;;;;;;;24.33;14.80;;;-4.70;99.90;;;-5.79;100.00;102377.31;4175050;28;20048;-68
2024/01/20 07:39:43;;;;;;;18.38;13.48;;;-4.70;99.90;;;-5.77;100.00;102378.19;4185097;28;20082;-68
2024/01/20 07:41:44;;;;;;;27.27;14.02;;;-4.70;99.90;;;-5.70;100.00;102384.94;4185279;28;20555;-68
2024/01/20 07:43:45;;;;;;;24.98;15.68;;;-4.60;99.90;;;-5.66;100.00;102379.78;4185111;28;20400;-68
2024/01/20 07:45:46;;;;;;;24.02;14.38;;;-4.60;99.90;;;-5.62;100.00;102367.75;4185298;28;20033;-69
2024/01/20 07:47:47;;;;;;;25.45;14.38;;;-4.60;99.90;;;-5.58;100.00;102378.88;4185147;28;20037;-68
2024/01/20 07:49:48;;;;;;;22.58;13.45;;;-4.50;99.90;;;-5.56;100.00;102366.84;4185237;28;20017;-68
2024/01/20 07:51:49;;;;;;;23.10;14.63;;;-4.50;99.90;;;-5.53;100.00;102367.69;4183787;28;20036;-68
2024/01/20 07:53:50;;;;;;;23.77;14.40;;;-4.40;99.90;;;-5.53;100.00;102365.09;4173541;28;20508;-68
2024/01/20 07:55:51;;;;;;;21.58;12.93;;;-4.40;99.90;;;-5.49;100.00;102369.34;4174721;28;20022;-68
2024/01/20 07:57:51;;;;;;;20.65;13.52;;;-4.40;99.90;;;-5.44;100.00;102371.88;4196814;28;20048;-68
2024/01/20 07:59:53;;;;;;;24.67;13.85;;;-4.30;99.90;;;-5.41;100.00;102377.84;4185078;28;20100;-68
2024/01/20 08:01:53;;;;;;;20.98;13.20;;;-4.30;99.90;;;-5.43;100.00;102370.97;4185228;28;20029;-68
2024/01/20 08:03:54;;;;;;;20.63;13.57;;;-4.30;99.90;;;-5.39;100.00;102368.38;4185144;28;20399;-68
2024/01/20 08:05:55;;;;;;;19.52;12.90;;;-4.30;99.90;;;-5.33;100.00;102364.91;4185223;28;20369;-68
2024/01/20 08:07:56;;;;;;;23.52;14.05;;;-4.20;99.90;;;-5.33;100.00;102370.03;4184982;28;20108;-68